Flight Track Log - Related Links

Times and Time Zones

All times are in EDT time to prevent confusion due to time zone crossing. See the N301DM flight status page for this flight to view local times or setup timezone preferences in your user account.

Time Position Orientation Groundspeed Altitude Reporting Facility
EDT Latitude Longitude Course Direction KTS MPH feet Rate Location/Type
Fri 10:36:00 AM 33.6370 -78.9130 220° Southwest  Level FlightAware Approximate
Fri 10:37:00 AM 33.6043 -78.9457 220° Southwest  Level FlightAware Approximate
Fri 10:38:00 AM 33.5730 -78.9804 223° Southwest  Level FlightAware Approximate
Fri 10:39:00 AM 33.5420 -79.0153 223° Southwest  Level FlightAware Approximate
Fri 10:40:00 AM 33.5109 -79.0503 223° Southwest  Level FlightAware Approximate
Fri 10:41:00 AM 33.4799 -79.0852 223° Southwest  Level FlightAware Approximate
Fri 10:42:00 AM 33.4590 -79.1254 224° Southwest  Level FlightAware Approximate
Fri 10:43:00 AM 33.4283 -79.1606 224° Southwest  Level FlightAware Approximate
Fri 10:44:00 AM 33.3975 -79.1958 224° Southwest  Level FlightAware Approximate
Fri 10:45:00 AM 33.3667 -79.2310 224° Southwest  Level FlightAware Approximate
Fri 10:46:00 AM 33.3350 -79.2650 220° Southwest  Level FlightAware Approximate
Fri 10:47:00 AM 33.3024 -79.2977 220° Southwest  Level FlightAware Approximate
Fri 10:48:00 AM 33.2697 -79.3303 220° Southwest  Level FlightAware Approximate
Fri 10:49:00 AM 33.2370 -79.3630 220° Southwest  Level FlightAware Approximate
Fri 10:50:00 AM 33.2140 -79.4054 239° Southwest  Level FlightAware Approximate
Fri 10:51:00 AM 33.1847 -79.4333 180° South  Level FlightAware Approximate
Fri 10:52:00 AM 33.1577 -79.4718 231° Southwest  Level FlightAware Approximate
Fri 10:53:00 AM 33.1268 -79.5065 220° Southwest  Level FlightAware Approximate
Fri 10:54:00 AM 33.0942 -79.5392 220° Southwest  Level FlightAware Approximate
Fri 10:55:00 AM 33.0622 -79.5726 228° Southwest  Level FlightAware Approximate
Fri 10:56:00 AM 33.0339 -79.6104 228° Southwest  Level FlightAware Approximate
Fri 10:57:00 AM 33.0038 -79.6462 220° Southwest  Level FlightAware Approximate
Fri 10:58:00 AM 32.9712 -79.6788 220° Southwest  Level FlightAware Approximate
Fri 10:59:00 AM 32.9386 -79.7114 220° Southwest  Level FlightAware Approximate
Fri 11:00:00 AM 32.9060 -79.7440 220° Southwest  Level FlightAware Approximate
Fri 11:01:00 AM 32.8833 -79.7667 220° Southwest  Level FlightAware Approximate
Fri 11:02:00 AM 32.8978 -79.7829 40° Northeast  Level Estimated

Login

Don't have an account? Register now (free) for customized features, flight alerts, and more!